Main page
METAR-TAF:

METAR-TAF

Airports :

Vršac International Airport

Vršac, Serbia

latitude: 45-09N, longitude: 021-19E, elevation: 83 m

Current weather observation

The report was made 23 minutes ago, at 04:30 UTC
Wind 3 kt from the North/Northeast
Temperature 7°C
Humidity 100%
Pressure 1009 hPa
Visibility: 8000 m

METAR: LYVR 250430Z AUTO 02003KT 8000 FEW005/// SCT012/// OVC019/// 07/07 Q1009

Time: 06:53 (04:53 UTC)

Forecast

The report was made 5 hours and 53 minutes ago, at 23:00 UTC
Forecast valid from 25 at 00 UTC to 25 at 24 UTC
Wind 4 kt from the Northwest
Visibility 10 km or more
Scattered clouds at a height of 4000 ft
Temporary
from 25 at 03 UTC to 25 at 06 UTC
Visibility: 3000 m
Broken clouds at a height of 600 ft
mist,

TAF: LYVR 242300Z 2500/2524 32004KT 9999 SCT040 TX14/2514Z TN05/2504Z TEMPO 2503/2506 3000 BR BKN006

Weather observations and forecasts of more than 4000 airports (METAR and TAF reports).

The available stations are represented by yellow and red dots on the map.

Hover mouse over dot to see the name of the station.

Then click to see weather observations and forecasts.

To change the map : click on the green buttons with a black cross to zoom in, on the green button with a dash to zoom out, or on the green arrows for adjacent maps.


METAR-TAF: